This demonstration page uses our WeatherBlox Daily Observations layout. Learn more.

41.55636, -103.73856

Hourly Observations for May 1, 2018

Temp ( °F °C ) Dew Point ( °F °C ) Humidity (%) Winds ( mph kmh ) Pressure ( in mb ) Visibility ( mi km ) Precip ( " mm )
12:58 am 00:58 Clear 39 4.1 38 3.4 95 95 E 7 11 29.76 1008 10 16.0934 N/A
1:58 am 01:58 Clear 39 3.8 38 3.4 97 97 ENE 5 7 29.74 1007 10 16.0934 N/A
2:58 am 02:58 Clear 37 3 36 2.1 94 94 N 5 7 29.76 1008 10 16.0934 0.01 0.254
3:58 am 03:58 Mostly Cloudy with Light Rain 40 4.6 40 4.2 97 97 S 5 7 29.75 1008 3 4.82802 N/A
4:58 am 04:58 Mostly Cloudy with Fog 41 4.8 40 4.4 97 97 SSW 6 9 29.78 1009 3 4.82802 N/A
5:58 am 05:58 Mostly Cloudy with Light Showers 41 4.8 40 4.3 97 97 WSW 9 15 29.78 1009 1 1.60934 0 0
6:58 am 06:58 Mostly Cloudy with Light Rain 40 4.2 39 3.8 97 97 W 7 11 29.8 1009 1 1.60934 N/A
7:58 am 07:58 Mostly Cloudy 42 5.7 42 5.5 99 99 WSW 6 9 29.81 1009 10 16.0934 N/A
8:58 am 08:58 Mostly Sunny 46 7.8 45 7.3 97 97 W 6 9 29.8 1009 10 16.0934 N/A
9:58 am 09:58 Mostly Sunny 50 10.2 39 4 66 66 W 3 6 29.79 1009 10 16.0934 N/A
10:58 am 10:58 Partly Cloudy 52 11.1 39 3.9 61 61 Calm 29.8 1009 10 16.0934 N/A
11:58 am 11:58 Mostly Cloudy with Light Showers 53 11.8 40 4.7 62 62 Calm 29.78 1008 10 16.0934 N/A
12:58 pm 12:58 Mostly Cloudy 57 13.8 41 4.8 55 55 ENE 7 11 29.77 1008 10 16.0934 N/A
1:58 pm 13:58 Mostly Cloudy with Nearby Thunderstorms 57 13.7 37 2.9 48 48 ENE 15 24 29.74 1007 10 16.0934 N/A
2:58 pm 14:58 Mostly Cloudy with Showers 52 10.9 45 7.2 78 78 NE 15 24 29.78 1008 10 16.0934 0.09 2.286
3:58 pm 15:58 Cloudy with Rain/Snow 41 5.1 39 3.8 91 91 NNW 23 37 29.87 1012 4 6.43736 0.13 3.302
4:58 pm 16:58 Cloudy with Light Showers 43 5.9 41 4.9 93 93 N 15 24 29.87 1012 10 16.0934 0.06 1.524
5:58 pm 17:58 Mostly Sunny 59 14.8 40 4.5 50 50 ENE 15 24 29.64 1004 10 16.0934 N/A
6:58 pm 18:58 Cloudy 44 6.5 42 5.5 93 93 NE 10 17 29.86 1011 10 16.0934 N/A
7:58 pm 19:58 Cloudy with Showers 44 6.9 42 5.4 90 90 Calm 29.9 1012 7 11.26538 0.06 1.524
8:58 pm 20:58 Mostly Clear 42 5.7 41 4.9 95 95 SSE 9 15 29.88 1012 10 16.0934 0 0
9:58 pm 21:58 Mostly Cloudy 42 5.8 41 4.9 94 94 SW 5 7 29.9 1012 10 16.0934 N/A
10:58 pm 22:58 Mostly Cloudy 43 6.2 41 5 92 92 WSW 8 13 29.92 1013 10 16.0934 N/A
11:58 pm 23:58 Mostly Clear 44 6.5 41 4.9 90 90 SSW 5 7 29.89 1012 10 16.0934 0 0

Powered by AerisWeather